createdAt,value
2018-05-03T00:00:08.906Z,99554.83
2018-05-03T00:02:37.273Z,99553.98
2018-05-03T00:05:05.592Z,99546.52
2018-05-03T00:07:33.929Z,99555.89
2018-05-03T00:10:02.279Z,99547.11
2018-05-03T00:12:30.603Z,99543.80
2018-05-03T00:14:58.937Z,99539.11
2018-05-03T00:17:27.261Z,99541.23
2018-05-03T00:19:55.619Z,99534.68
2018-05-03T00:22:24.360Z,99551.37
2018-05-03T00:24:52.734Z,99554.55
2018-05-03T00:27:21.081Z,99559.72
2018-05-03T00:29:49.496Z,99554.28
2018-05-03T00:32:17.875Z,99565.63
2018-05-03T00:34:46.182Z,99565.63
2018-05-03T00:37:14.539Z,99555.34
2018-05-03T00:39:42.907Z,99555.69
2018-05-03T00:42:11.232Z,99563.40
2018-05-03T00:44:39.575Z,99567.13
2018-05-03T00:47:07.918Z,99571.07
2018-05-03T00:49:36.347Z,99572.05
2018-05-03T00:52:04.693Z,99581.20
2018-05-03T00:54:44.832Z,99584.22
2018-05-03T00:57:13.177Z,99595.59
2018-05-03T00:59:41.535Z,99594.78
2018-05-03T01:02:09.887Z,99598.75
2018-05-03T01:04:38.225Z,99584.29
2018-05-03T01:07:06.567Z,99572.45
2018-05-03T01:09:34.919Z,99563.70
2018-05-03T01:12:03.287Z,99562.35
2018-05-03T01:14:31.616Z,99571.60
2018-05-03T01:17:00.003Z,99575.92
2018-05-03T01:19:28.428Z,99578.19
2018-05-03T01:21:56.809Z,99579.23
2018-05-03T01:24:25.162Z,99606.97
2018-05-03T01:26:53.593Z,99588.36
2018-05-03T01:29:21.944Z,99557.81
2018-05-03T01:31:50.301Z,99560.56
2018-05-03T01:34:18.645Z,99580.31
2018-05-03T01:36:46.969Z,99599.66
2018-05-03T01:39:15.318Z,99605.16
2018-05-03T01:41:43.678Z,99593.08
2018-05-03T01:44:12.043Z,99589.92
2018-05-03T01:46:41.793Z,99593.19
2018-05-03T01:49:10.147Z,99619.33
2018-05-03T01:51:38.528Z,99620.78
2018-05-03T01:54:06.912Z,99596.23
2018-05-03T01:56:35.277Z,99568.78
2018-05-03T01:59:03.671Z,99561.17
2018-05-03T02:01:32.125Z,99578.69
2018-05-03T02:04:01.236Z,99594.30
2018-05-03T02:06:29.550Z,99586.87
2018-05-03T02:08:57.911Z,99593.17
2018-05-03T02:11:26.356Z,99596.19
2018-05-03T02:13:54.751Z,99600.22
2018-05-03T02:16:23.140Z,99586.05
2018-05-03T02:18:51.459Z,99582.25
2018-05-03T02:21:19.837Z,99579.91
2018-05-03T02:23:48.219Z,99586.01
2018-05-03T02:26:16.583Z,99594.68
2018-05-03T02:28:44.890Z,99595.31
2018-05-03T02:31:13.224Z,99597.20
2018-05-03T02:33:41.599Z,99603.98
2018-05-03T02:36:09.967Z,99604.27
2018-05-03T02:38:38.325Z,99602.53
2018-05-03T02:41:06.739Z,99591.28
2018-05-03T02:43:35.066Z,99581.79
2018-05-03T02:46:03.416Z,99588.95
2018-05-03T02:48:31.743Z,99591.64
2018-05-03T02:51:00.108Z,99585.32
2018-05-03T02:53:28.498Z,99588.06
2018-05-03T02:55:56.816Z,99588.07
2018-05-03T02:58:37.054Z,99593.45
2018-05-03T03:01:23.007Z,99598.45
2018-05-03T03:04:08.820Z,99590.09
2018-05-03T03:06:54.733Z,99556.50
2018-05-03T03:13:09.910Z,99567.08
2018-05-03T03:19:06.850Z,99562.34
2018-05-03T03:21:53.308Z,99558.02
2018-05-03T03:27:39.855Z,99542.20
2018-05-03T03:30:19.995Z,99539.59
2018-05-03T03:33:00.384Z,99544.16
2018-05-03T03:38:48.372Z,99537.19
2018-05-03T03:41:28.737Z,99534.11
2018-05-03T03:44:08.836Z,99538.66
2018-05-03T03:46:37.279Z,99525.62
2018-05-03T03:49:05.684Z,99528.86
2018-05-03T03:51:34.012Z,99527.75
2018-05-03T03:54:02.438Z,99538.09
2018-05-03T03:56:30.739Z,99541.39
2018-05-03T03:58:59.083Z,99539.92
2018-05-03T04:01:27.404Z,99533.66
2018-05-03T04:03:55.749Z,99529.70
2018-05-03T04:06:24.080Z,99524.12
2018-05-03T04:08:52.988Z,99521.43
2018-05-03T04:11:21.320Z,99520.98
2018-05-03T04:13:49.686Z,99511.31
2018-05-03T04:16:18.110Z,99515.20
2018-05-03T04:18:58.095Z,99514.89
2018-05-03T04:21:38.340Z,99526.98
2018-05-03T04:24:18.732Z,99534.66
2018-05-03T04:26:47.046Z,99532.92
2018-05-03T04:29:15.403Z,99524.59
2018-05-03T04:31:43.730Z,99531.73
2018-05-03T04:34:12.140Z,99529.88
2018-05-03T04:36:40.537Z,99533.43
2018-05-03T04:39:08.871Z,99535.56
2018-05-03T04:41:37.224Z,99542.94
2018-05-03T04:44:05.547Z,99555.76
2018-05-03T04:46:33.893Z,99544.68
2018-05-03T04:49:02.215Z,99540.31
2018-05-03T04:51:30.632Z,99551.72
2018-05-03T04:53:59.023Z,99553.86
2018-05-03T04:56:27.349Z,99560.91
2018-05-03T04:58:55.715Z,99577.27
2018-05-03T05:01:24.059Z,99590.66
2018-05-03T05:03:52.388Z,99591.12
2018-05-03T05:06:20.724Z,99587.69
2018-05-03T05:08:49.065Z,99594.53
2018-05-03T05:11:17.458Z,99602.25
2018-05-03T05:13:45.864Z,99607.95
2018-05-03T05:16:14.306Z,99616.16
2018-05-03T05:18:42.611Z,99628.47
2018-05-03T05:21:10.999Z,99637.13
2018-05-03T05:23:39.347Z,99650.70
2018-05-03T05:26:07.665Z,99658.44
2018-05-03T05:28:35.992Z,99663.01
2018-05-03T05:31:04.402Z,99660.20
2018-05-03T05:33:32.791Z,99664.81
2018-05-03T05:36:01.123Z,99674.91
2018-05-03T05:38:29.528Z,99687.34
2018-05-03T05:40:57.838Z,99688.90
2018-05-03T05:43:26.282Z,99691.91
2018-05-03T05:45:54.657Z,99695.03
2018-05-03T05:48:23.002Z,99698.84
2018-05-03T05:50:51.337Z,99710.09
2018-05-03T05:53:19.727Z,99720.28
2018-05-03T05:55:48.043Z,99725.77
2018-05-03T05:58:16.412Z,99718.80
2018-05-03T06:00:44.732Z,99724.02
2018-05-03T06:03:13.065Z,99723.19
2018-05-03T06:05:41.479Z,99735.56
2018-05-03T06:08:09.854Z,99740.23
2018-05-03T06:10:38.328Z,99756.16
2018-05-03T06:13:06.665Z,99761.27
2018-05-03T06:15:35.327Z,99775.30
2018-05-03T06:18:03.665Z,99781.08
2018-05-03T06:20:32.046Z,99788.13
2018-05-03T06:23:00.443Z,99795.88
2018-05-03T06:25:28.993Z,99794.76
2018-05-03T06:27:57.485Z,99798.13
2018-05-03T06:30:25.858Z,99790.39
2018-05-03T06:32:54.165Z,99786.69
2018-05-03T06:35:22.503Z,99790.41
2018-05-03T06:37:51.002Z,99797.92
2018-05-03T06:40:19.351Z,99800.05
2018-05-03T06:42:47.680Z,99800.66
2018-05-03T06:45:16.119Z,99800.30
2018-05-03T06:47:44.415Z,99802.44
2018-05-03T06:50:12.775Z,99802.36
2018-05-03T06:52:41.061Z,99803.89
2018-05-03T06:55:09.450Z,99804.61
2018-05-03T06:57:37.781Z,99802.89
2018-05-03T07:00:06.134Z,99806.02
2018-05-03T07:02:34.472Z,99809.99
2018-05-03T07:05:02.776Z,99810.23
2018-05-03T07:07:31.102Z,99822.42
2018-05-03T07:09:59.462Z,99818.99
2018-05-03T07:12:27.744Z,99824.87
2018-05-03T07:14:56.091Z,99830.36
2018-05-03T07:17:24.461Z,99830.95
2018-05-03T07:19:52.798Z,99824.42
2018-05-03T07:22:21.134Z,99822.45
2018-05-03T07:24:49.537Z,99834.52
2018-05-03T07:27:17.928Z,99837.31
2018-05-03T07:29:46.426Z,99833.04
2018-05-03T07:32:14.747Z,99832.39
2018-05-03T07:34:43.203Z,99841.77
2018-05-03T07:37:11.417Z,99843.16
2018-05-03T07:39:39.793Z,99845.74
2018-05-03T07:42:08.194Z,99845.19
2018-05-03T07:44:36.572Z,99852.78
2018-05-03T07:47:04.929Z,99852.98
2018-05-03T07:49:33.419Z,99855.81
2018-05-03T07:52:01.744Z,99852.34
2018-05-03T07:54:30.070Z,99857.66
2018-05-03T07:56:58.434Z,99861.04
2018-05-03T07:59:26.754Z,99853.48
2018-05-03T08:01:55.088Z,99862.16
2018-05-03T08:04:23.419Z,99867.70
2018-05-03T08:06:51.746Z,99867.90
2018-05-03T08:09:20.063Z,99866.09
2018-05-03T08:11:48.380Z,99864.00
2018-05-03T08:14:16.705Z,99870.04
2018-05-03T08:16:45.090Z,99872.07
2018-05-03T08:19:13.482Z,99878.80
2018-05-03T08:21:41.816Z,99879.79
2018-05-03T08:24:10.142Z,99879.75
2018-05-03T08:26:38.545Z,99892.25
2018-05-03T08:29:06.888Z,99887.40
2018-05-03T08:31:35.310Z,99897.30
2018-05-03T08:34:03.635Z,99886.24
2018-05-03T08:36:31.947Z,99900.69
2018-05-03T08:39:00.284Z,99903.16
2018-05-03T08:41:28.607Z,99906.58
2018-05-03T08:43:56.972Z,99907.69
2018-05-03T08:46:25.364Z,99908.66
2018-05-03T08:48:53.735Z,99917.05
2018-05-03T08:51:22.079Z,99912.98
2018-05-03T08:53:50.445Z,99915.41
2018-05-03T08:56:18.757Z,99918.84
2018-05-03T08:58:47.120Z,99916.53
2018-05-03T09:01:15.469Z,99913.83
2018-05-03T09:03:43.804Z,99917.92
2018-05-03T09:06:12.227Z,99922.16
2018-05-03T09:08:40.541Z,99923.84
2018-05-03T09:11:08.977Z,99923.90
2018-05-03T09:13:37.400Z,99924.27
2018-05-03T09:16:05.972Z,99925.23
2018-05-03T09:18:34.316Z,99920.44
2018-05-03T09:21:02.716Z,99933.91
2018-05-03T09:23:31.022Z,99931.48
2018-05-03T09:25:59.415Z,99940.59
2018-05-03T09:28:27.732Z,99934.08
2018-05-03T09:30:56.079Z,99937.69
2018-05-03T09:33:24.502Z,99942.81
2018-05-03T09:35:52.840Z,99943.48
2018-05-03T09:38:21.162Z,99949.32
2018-05-03T09:40:49.498Z,99950.98
2018-05-03T09:43:17.844Z,99961.44
2018-05-03T09:45:46.273Z,99970.84
2018-05-03T09:48:14.609Z,99969.05
2018-05-03T09:50:43.167Z,99964.80
2018-05-03T09:53:11.481Z,99964.75
2018-05-03T09:55:39.841Z,99967.57
2018-05-03T09:58:08.171Z,99978.48
2018-05-03T10:00:36.487Z,99977.38
2018-05-03T10:03:04.813Z,99982.39
2018-05-03T10:05:33.219Z,99983.20
2018-05-03T10:08:01.538Z,99985.59
2018-05-03T10:10:29.898Z,99986.16
2018-05-03T10:12:58.298Z,99993.63
2018-05-03T10:15:26.698Z,99998.46
2018-05-03T10:17:55.039Z,99998.46
2018-05-03T10:20:23.995Z,100003.40
2018-05-03T10:22:52.368Z,99998.29
2018-05-03T10:25:20.775Z,100000.56
2018-05-03T10:27:49.098Z,100005.00
2018-05-03T10:30:17.437Z,99999.35
2018-05-03T10:32:45.859Z,100004.75
2018-05-03T10:35:14.202Z,100004.42
2018-05-03T10:37:42.528Z,100007.55
2018-05-03T10:40:10.922Z,100001.66
2018-05-03T10:42:39.354Z,100003.27
2018-05-03T10:45:07.666Z,100005.16
2018-05-03T10:47:35.995Z,100010.30
2018-05-03T10:50:04.382Z,100011.56
2018-05-03T10:52:32.704Z,100017.33
2018-05-03T10:55:01.188Z,100016.65
2018-05-03T10:57:29.600Z,100018.47
2018-05-03T10:59:58.009Z,100017.55
2018-05-03T11:02:26.342Z,100018.77
2018-05-03T11:04:54.677Z,100010.71
2018-05-03T11:07:23.021Z,100013.49
2018-05-03T11:09:51.377Z,100003.78
2018-05-03T11:12:20.295Z,100009.44
2018-05-03T11:14:48.730Z,100003.06
2018-05-03T11:17:17.131Z,100001.66
2018-05-03T11:19:45.466Z,99997.57
2018-05-03T11:22:13.796Z,100007.67
2018-05-03T11:24:42.174Z,100011.38
2018-05-03T11:27:10.505Z,100014.66
2018-05-03T11:29:38.923Z,100012.86
2018-05-03T11:32:07.298Z,100006.11
2018-05-03T11:34:35.637Z,100004.23
2018-05-03T11:37:04.066Z,100005.36
2018-05-03T11:39:32.319Z,100009.58
2018-05-03T11:42:00.700Z,100004.10
2018-05-03T11:44:29.098Z,100002.91
2018-05-03T11:46:57.499Z,100005.25
2018-05-03T11:49:25.947Z,100008.88
2018-05-03T11:51:54.313Z,100008.16
2018-05-03T11:54:22.698Z,100009.66
2018-05-03T11:56:51.075Z,100011.03
2018-05-03T11:59:19.483Z,100008.25
2018-05-03T12:01:47.858Z,100010.56
2018-05-03T12:04:16.251Z,100012.50
2018-05-03T12:06:44.587Z,100012.61
2018-05-03T12:09:12.919Z,100010.94
2018-05-03T12:11:41.945Z,100012.81
2018-05-03T12:14:10.277Z,100010.30
2018-05-03T12:16:38.619Z,100014.22
2018-05-03T12:19:06.947Z,100009.42
2018-05-03T12:21:35.283Z,100012.09
2018-05-03T12:24:03.663Z,100005.73
2018-05-03T12:26:32.080Z,99996.98
2018-05-03T12:29:00.428Z,99991.27
2018-05-03T12:31:28.754Z,99990.13
2018-05-03T12:33:57.112Z,99994.67
2018-05-03T12:36:25.456Z,99991.55
2018-05-03T12:38:53.789Z,99983.84
2018-05-03T12:41:22.103Z,99982.31
2018-05-03T12:43:50.449Z,99981.77
2018-05-03T12:46:18.817Z,99988.47
2018-05-03T12:48:47.155Z,99977.33
2018-05-03T12:51:15.479Z,99982.33
2018-05-03T12:53:43.894Z,99981.13
2018-05-03T12:56:12.282Z,99990.86
2018-05-03T12:58:40.635Z,99983.42
2018-05-03T13:01:08.956Z,99984.84
2018-05-03T13:03:37.317Z,99984.30
2018-05-03T13:06:05.646Z,99986.69
2018-05-03T13:08:34.029Z,99986.86
2018-05-03T13:11:02.361Z,99985.03
2018-05-03T13:13:30.692Z,99980.86
2018-05-03T13:15:59.063Z,99977.44
2018-05-03T13:18:27.375Z,99974.91
2018-05-03T13:20:55.716Z,99971.94
2018-05-03T13:23:24.070Z,99973.06
2018-05-03T13:25:52.441Z,99981.30
2018-05-03T13:28:20.773Z,99985.41
2018-05-03T13:30:49.148Z,99980.78
2018-05-03T13:33:17.478Z,99976.52
2018-05-03T13:35:45.856Z,99977.39
2018-05-03T13:38:14.248Z,99975.88
2018-05-03T13:40:42.585Z,99974.56
2018-05-03T13:43:11.026Z,99968.63
2018-05-03T13:45:39.381Z,99971.31
2018-05-03T13:48:07.746Z,99975.61
2018-05-03T13:50:36.105Z,99969.92
2018-05-03T13:53:04.468Z,99976.63
2018-05-03T13:55:32.850Z,99969.98
2018-05-03T13:58:01.188Z,99971.70
2018-05-03T14:00:29.515Z,99975.34
2018-05-03T14:02:57.829Z,99985.70
2018-05-03T14:05:26.245Z,99985.20
2018-05-03T14:07:54.642Z,99983.88
2018-05-03T14:10:22.994Z,99974.86
2018-05-03T14:12:51.344Z,99980.58
2018-05-03T14:15:19.711Z,99975.33
2018-05-03T14:17:48.080Z,99980.41
2018-05-03T14:20:16.409Z,99983.25
2018-05-03T14:22:44.760Z,99980.80
2018-05-03T14:25:13.087Z,99982.25
2018-05-03T14:27:41.451Z,99985.63
2018-05-03T14:30:09.862Z,99993.84
2018-05-03T14:32:38.240Z,99993.35
2018-05-03T14:35:06.583Z,99990.91
2018-05-03T14:37:34.962Z,99987.61
2018-05-03T14:40:03.315Z,99982.05
2018-05-03T14:42:31.644Z,99988.20
2018-05-03T14:45:00.052Z,99986.81
2018-05-03T14:47:28.406Z,99985.26
2018-05-03T14:49:56.729Z,99985.75
2018-05-03T14:52:25.095Z,99987.36
2018-05-03T14:54:53.439Z,99977.53
2018-05-03T14:57:21.788Z,99985.20
2018-05-03T14:59:50.141Z,99989.75
2018-05-03T15:02:18.490Z,99990.59
2018-05-03T15:04:46.943Z,99990.41
2018-05-03T15:07:15.266Z,99993.79
2018-05-03T15:09:43.618Z,99987.67
2018-05-03T15:12:11.947Z,99991.14
2018-05-03T15:14:40.299Z,99991.77
2018-05-03T15:17:08.636Z,99996.89
2018-05-03T15:19:36.958Z,99994.18
2018-05-03T15:22:05.280Z,99998.03
2018-05-03T15:24:33.687Z,100000.36
2018-05-03T15:27:01.999Z,99999.80
2018-05-03T15:29:30.330Z,99993.18
2018-05-03T15:31:58.662Z,99997.06
2018-05-03T15:34:27.522Z,99997.08
2018-05-03T15:36:56.032Z,99998.81
2018-05-03T15:39:24.452Z,100006.14
2018-05-03T15:41:52.873Z,99995.11
2018-05-03T15:44:21.214Z,99996.66
2018-05-03T15:46:49.528Z,99999.53
2018-05-03T15:49:17.854Z,100000.55
2018-05-03T15:51:46.219Z,99997.35
2018-05-03T15:54:14.544Z,99999.31
2018-05-03T15:56:42.858Z,99996.41
2018-05-03T15:59:11.195Z,100001.94
2018-05-03T16:01:39.535Z,100002.44
2018-05-03T16:04:08.866Z,100003.23
2018-05-03T16:06:37.184Z,100004.41
2018-05-03T16:09:06.447Z,100005.19
2018-05-03T16:11:34.775Z,100001.43
2018-05-03T16:14:03.115Z,100007.49
2018-05-03T16:16:31.479Z,100007.70
2018-05-03T16:19:00.069Z,100006.14
2018-05-03T16:21:28.403Z,100010.34
2018-05-03T16:23:56.729Z,100009.87
2018-05-03T16:26:25.068Z,100009.63
2018-05-03T16:28:54.361Z,100012.92
2018-05-03T16:31:22.707Z,100017.30
2018-05-03T16:33:51.027Z,100015.84
2018-05-03T16:36:19.386Z,100015.48
2018-05-03T16:38:47.715Z,100017.24
2018-05-03T16:41:16.068Z,100021.87
2018-05-03T16:43:44.386Z,100021.87
2018-05-03T16:46:12.710Z,100023.68
2018-05-03T16:48:41.042Z,100017.59
2018-05-03T16:51:09.391Z,100015.89
2018-05-03T16:53:37.955Z,100018.95
2018-05-03T16:56:06.298Z,100019.73
2018-05-03T16:58:34.607Z,100018.11
2018-05-03T17:01:03.063Z,100026.70
2018-05-03T17:03:31.390Z,100026.11
2018-05-03T17:06:00.725Z,100023.39
2018-05-03T17:08:29.062Z,100032.16
2018-05-03T17:10:57.381Z,100032.89
2018-05-03T17:13:25.728Z,100040.81
2018-05-03T17:15:54.046Z,100041.55
2018-05-03T17:18:22.401Z,100039.08
2018-05-03T17:20:50.743Z,100044.22
2018-05-03T17:23:23.571Z,100043.98
2018-05-03T17:25:51.927Z,100050.08
2018-05-03T17:28:20.370Z,100049.89
2018-05-03T17:30:48.787Z,100060.98
2018-05-03T17:33:17.166Z,100067.82
2018-05-03T17:35:46.284Z,100074.87
2018-05-03T17:38:14.622Z,100081.83
2018-05-03T17:40:42.966Z,100083.69
2018-05-03T17:43:11.299Z,100090.30
2018-05-03T17:45:39.633Z,100093.77
2018-05-03T17:48:08.025Z,100099.69
2018-05-03T17:50:36.419Z,100093.27
2018-05-03T17:53:04.884Z,100095.80
2018-05-03T17:55:33.229Z,100100.90
2018-05-03T17:58:01.547Z,100102.14
2018-05-03T18:00:29.863Z,100109.28
2018-05-03T18:02:58.177Z,100106.61
2018-05-03T18:05:26.525Z,100117.14
2018-05-03T18:07:55.013Z,100113.95
2018-05-03T18:10:23.391Z,100125.13
2018-05-03T18:12:51.799Z,100131.17
2018-05-03T18:15:20.156Z,100133.51
2018-05-03T18:17:48.491Z,100134.97
2018-05-03T18:20:16.932Z,100136.37
2018-05-03T18:22:45.265Z,100139.12
2018-05-03T18:25:13.635Z,100142.16
2018-05-03T18:27:41.955Z,100150.00
2018-05-03T18:30:10.392Z,100152.02
2018-05-03T18:32:38.822Z,100158.41
2018-05-03T18:35:07.124Z,100156.58
2018-05-03T18:37:35.566Z,100158.27
2018-05-03T18:40:03.959Z,100157.36
2018-05-03T18:42:32.306Z,100172.94
2018-05-03T18:45:00.635Z,100174.97
2018-05-03T18:47:28.988Z,100174.83
2018-05-03T18:49:57.378Z,100181.12
2018-05-03T18:52:25.735Z,100186.37
2018-05-03T18:54:54.063Z,100194.98
2018-05-03T18:57:22.417Z,100199.64
2018-05-03T18:59:50.762Z,100204.80
2018-05-03T19:02:19.188Z,100203.30
2018-05-03T19:04:47.647Z,100211.77
2018-05-03T19:07:15.966Z,100215.12
2018-05-03T19:09:44.342Z,100223.72
2018-05-03T19:12:12.681Z,100225.07
2018-05-03T19:14:41.014Z,100237.83
2018-05-03T19:17:09.386Z,100233.30
2018-05-03T19:19:37.729Z,100244.58
2018-05-03T19:22:06.105Z,100249.11
2018-05-03T19:24:34.464Z,100253.66
2018-05-03T19:27:02.815Z,100254.34
2018-05-03T19:29:31.128Z,100251.13
2018-05-03T19:31:59.453Z,100253.61
2018-05-03T19:34:27.765Z,100266.40
2018-05-03T19:36:56.139Z,100268.00
2018-05-03T19:39:24.559Z,100269.43
2018-05-03T19:41:52.954Z,100272.92
2018-05-03T19:44:21.290Z,100275.06
2018-05-03T19:46:49.615Z,100267.41
2018-05-03T19:49:17.957Z,100271.13
2018-05-03T19:51:46.331Z,100277.29
2018-05-03T19:54:14.699Z,100276.42
2018-05-03T19:56:43.004Z,100282.93
2018-05-03T19:59:11.393Z,100284.92
2018-05-03T20:01:39.806Z,100281.71
2018-05-03T20:04:08.219Z,100283.14
2018-05-03T20:06:36.577Z,100282.56
2018-05-03T20:09:04.912Z,100281.28
2018-05-03T20:11:33.249Z,100276.42
2018-05-03T20:14:01.596Z,100277.05
2018-05-03T20:16:29.937Z,100276.00
2018-05-03T20:18:58.328Z,100282.84
2018-05-03T20:21:26.717Z,100281.15
2018-05-03T20:23:55.035Z,100288.21
2018-05-03T20:26:23.378Z,100287.98
2018-05-03T20:28:51.819Z,100285.67
2018-05-03T20:31:20.140Z,100290.83
2018-05-03T20:33:49.492Z,100293.86
2018-05-03T20:36:17.991Z,100293.27
2018-05-03T20:38:46.325Z,100289.80
2018-05-03T20:41:14.626Z,100290.58
2018-05-03T20:43:43.265Z,100293.42
2018-05-03T20:46:11.773Z,100295.33
2018-05-03T20:48:40.063Z,100300.08
2018-05-03T20:51:08.475Z,100306.31
2018-05-03T20:53:36.797Z,100304.70
2018-05-03T20:56:05.111Z,100308.27
2018-05-03T20:58:33.532Z,100315.65
2018-05-03T21:01:01.838Z,100327.02
2018-05-03T21:03:30.179Z,100336.73
2018-05-03T21:05:58.497Z,100337.16
2018-05-03T21:08:26.885Z,100346.60
2018-05-03T21:10:55.213Z,100352.27
2018-05-03T21:13:23.538Z,100356.88
2018-05-03T21:15:51.874Z,100362.45
2018-05-03T21:18:20.212Z,100367.09
2018-05-03T21:20:48.738Z,100371.48
2018-05-03T21:23:17.098Z,100379.39
2018-05-03T21:25:45.413Z,100377.41
2018-05-03T21:28:13.818Z,100380.16
2018-05-03T21:30:42.168Z,100386.70
2018-05-03T21:33:10.504Z,100393.80
2018-05-03T21:35:38.887Z,100397.56
2018-05-03T21:38:07.220Z,100404.58
2018-05-03T21:40:35.551Z,100405.37
2018-05-03T21:43:03.980Z,100402.45
2018-05-03T21:45:32.299Z,100406.83
2018-05-03T21:48:00.612Z,100407.06
2018-05-03T21:50:28.963Z,100415.05
2018-05-03T21:52:57.353Z,100416.66
2018-05-03T21:55:25.659Z,100411.02
2018-05-03T21:57:53.995Z,100416.31
2018-05-03T22:00:22.344Z,100422.27
2018-05-03T22:02:50.708Z,100432.62
2018-05-03T22:05:19.026Z,100422.49
2018-05-03T22:07:47.384Z,100424.52
2018-05-03T22:10:15.726Z,100431.95
2018-05-03T22:12:44.052Z,100430.88
2018-05-03T22:15:12.443Z,100432.66
2018-05-03T22:17:40.776Z,100437.63
2018-05-03T22:20:09.095Z,100435.41
2018-05-03T22:22:37.498Z,100449.13
2018-05-03T22:25:05.816Z,100438.68
2018-05-03T22:27:34.158Z,100449.00
2018-05-03T22:33:01.666Z,100449.51
2018-05-03T22:35:30.132Z,100450.22
2018-05-03T22:37:58.593Z,100458.48
2018-05-03T22:40:26.966Z,100460.90
2018-05-03T22:42:55.291Z,100468.67
2018-05-03T22:45:23.630Z,100471.33
2018-05-03T22:47:51.962Z,100472.08
2018-05-03T22:50:20.281Z,100473.63
2018-05-03T22:52:48.670Z,100483.73
2018-05-03T22:55:16.986Z,100482.81
2018-05-03T22:57:45.316Z,100488.92
2018-05-03T23:00:13.637Z,100488.88
2018-05-03T23:02:41.948Z,100493.16
2018-05-03T23:05:10.269Z,100493.16
2018-05-03T23:07:38.606Z,100498.25
2018-05-03T23:10:06.943Z,100508.25
2018-05-03T23:12:35.278Z,100512.20
2018-05-03T23:15:03.607Z,100513.98
2018-05-03T23:17:31.935Z,100511.80
2018-05-03T23:20:00.343Z,100512.89
2018-05-03T23:22:32.595Z,100504.27
2018-05-03T23:25:00.925Z,100509.80
2018-05-03T23:27:29.247Z,100520.58
2018-05-03T23:29:57.603Z,100523.33
2018-05-03T23:32:26.000Z,100518.76
2018-05-03T23:34:54.410Z,100529.09
2018-05-03T23:37:22.727Z,100540.27
2018-05-03T23:39:51.078Z,100541.67
2018-05-03T23:42:19.397Z,100539.95
2018-05-03T23:44:47.754Z,100555.28
2018-05-03T23:47:16.165Z,100546.69
2018-05-03T23:49:44.551Z,100549.26
2018-05-03T23:52:12.895Z,100548.86
2018-05-03T23:54:41.236Z,100549.80
2018-05-03T23:57:09.555Z,100549.47
2018-05-03T23:59:37.922Z,100550.08
